Time;durP1;ratioP1;P1;durP2;ratioP2;P2;SDS_P1;SDS_P2;PMS_P1;PMS_P2;Temp;Humidity;BMP_temperature;BMP_pressure;BME280_temperature;BME280_humidity;BME280_pressure;Samples;Min_cycle;Max_cycle;Signal;HPM_P1;HPM_P2
2022/09/02 00:00:36;;;;;;;9.30;8.60;;;14.00;99.90;;;;;;4880288;29;20205;-77
2022/09/02 00:03:03;;;;;;;10.13;9.33;;;14.00;99.90;;;;;;4879888;29;20239;-78
2022/09/02 00:05:30;;;;;;;9.43;8.73;;;14.00;99.90;;;;;;4893785;29;20197;-78
2022/09/02 00:07:57;;;;;;;8.90;8.20;;;13.90;99.90;;;;;;4880434;29;20205;-78
2022/09/02 00:10:25;;;;;;;8.90;8.20;;;13.90;99.90;;;;;;4880003;29;20205;-77
2022/09/02 00:12:52;;;;;;;9.00;8.30;;;13.90;99.90;;;;;;4880001;29;20927;-77
2022/09/02 00:15:19;;;;;;;9.30;8.60;;;13.80;99.90;;;;;;4879481;29;20209;-78
2022/09/02 00:17:46;;;;;;;9.17;8.50;;;13.80;99.90;;;;;;4890887;29;20217;-79
2022/09/02 00:20:13;;;;;;;8.87;8.27;;;13.80;99.90;;;;;;4880095;29;20206;-78
2022/09/02 00:22:40;;;;;;;9.60;8.90;;;13.80;99.90;;;;;;4893122;29;20232;-79
2022/09/02 00:25:08;;;;;;;9.53;8.83;;;13.80;99.90;;;;;;4893500;29;20205;-78
2022/09/02 00:27:36;;;;;;;9.40;8.80;;;13.80;99.90;;;;;;4879346;29;20237;-78
2022/09/02 00:30:05;;;;;;;9.10;8.50;;;13.80;99.90;;;;;;4879434;29;20207;-78
2022/09/02 00:32:32;;;;;;;9.40;8.60;;;13.80;99.90;;;;;;4879263;29;20213;-78
2022/09/02 00:35:00;;;;;;;8.80;8.20;;;13.80;99.90;;;;;;4878453;29;20213;-77
2022/09/02 00:37:27;;;;;;;9.23;8.63;;;13.70;99.90;;;;;;4879007;29;20212;-78
2022/09/02 00:39:54;;;;;;;9.60;8.90;;;13.70;99.90;;;;;;4893965;29;20209;-78
2022/09/02 00:42:23;;;;;;;9.33;8.63;;;13.60;99.90;;;;;;4878881;29;20213;-77
2022/09/02 00:44:51;;;;;;;8.40;7.80;;;13.60;99.90;;;;;;4893839;29;20232;-78
2022/09/02 00:47:18;;;;;;;8.80;8.20;;;13.60;99.90;;;;;;4894985;29;20266;-78
2022/09/02 00:49:50;;;;;;;8.73;8.10;;;13.50;99.90;;;;;;4882194;29;20536;-79
2022/09/02 00:52:21;;;;;;;9.00;8.17;;;13.50;99.90;;;;;;4894115;29;20615;-78
2022/09/02 00:54:51;;;;;;;8.70;8.00;;;13.40;99.90;;;;;;4893890;29;20217;-78
2022/09/02 00:57:22;;;;;;;8.53;7.93;;;13.40;99.90;;;;;;4893943;29;20660;-78
2022/09/02 00:59:56;;;;;;;8.43;7.83;;;13.40;99.90;;;;;;4878861;29;20702;-78
2022/09/02 01:02:24;;;;;;;8.60;7.90;;;13.40;99.90;;;;;;4881465;29;20281;-78
2022/09/02 01:04:55;;;;;;;8.77;8.07;;;13.40;99.90;;;;;;4896944;29;20242;-78
2022/09/02 01:07:22;;;;;;;8.40;7.80;;;13.40;99.90;;;;;;4881798;29;20567;-78
2022/09/02 01:09:50;;;;;;;8.50;7.80;;;13.30;99.90;;;;;;4896617;29;20679;-78
2022/09/02 01:12:17;;;;;;;8.70;8.00;;;13.30;99.90;;;;;;4882421;29;20221;-78
2022/09/02 01:14:44;;;;;;;8.23;7.60;;;13.20;99.90;;;;;;4881421;29;20270;-78
2022/09/02 01:17:12;;;;;;;8.50;7.90;;;13.20;99.90;;;;;;4893542;29;20212;-78
2022/09/02 01:19:46;;;;;;;9.00;8.30;;;13.20;99.90;;;;;;4892556;29;20213;-78
2022/09/02 01:22:20;;;;;;;9.10;8.40;;;13.10;99.90;;;;;;4896834;29;20225;-79
2022/09/02 01:24:47;;;;;;;9.00;8.20;;;13.10;99.90;;;;;;4881795;29;20200;-78
2022/09/02 01:27:16;;;;;;;9.10;8.40;;;13.00;99.90;;;;;;4880973;29;20205;-78
2022/09/02 01:29:43;;;;;;;9.07;8.30;;;13.00;99.90;;;;;;4896720;29;20208;-79
2022/09/02 01:32:10;;;;;;;9.00;8.40;;;13.00;99.90;;;;;;4894830;29;20225;-78
2022/09/02 01:34:37;;;;;;;8.77;8.07;;;13.00;99.90;;;;;;4895448;29;20229;-78
2022/09/02 01:37:04;;;;;;;9.40;8.60;;;12.90;99.90;;;;;;4898935;29;20213;-78
2022/09/02 01:39:32;;;;;;;9.70;8.70;;;13.00;99.90;;;;;;4897657;29;20664;-78
2022/09/02 01:42:01;;;;;;;9.23;8.27;;;12.90;99.90;;;;;;4897119;29;20237;-79
2022/09/02 01:44:28;;;;;;;8.50;7.90;;;13.00;99.90;;;;;;4896832;29;20586;-78
2022/09/02 01:46:55;;;;;;;8.37;7.77;;;12.90;99.90;;;;;;4882641;29;20207;-78
2022/09/02 01:49:23;;;;;;;9.20;8.40;;;12.80;99.90;;;;;;4896773;29;20292;-78
2022/09/02 01:51:54;;;;;;;9.37;8.67;;;12.80;99.90;;;;;;4896572;29;20239;-78
2022/09/02 01:54:21;;;;;;;9.63;8.83;;;12.80;99.90;;;;;;4893093;29;20681;-78
2022/09/02 01:56:50;;;;;;;9.00;8.30;;;12.70;99.90;;;;;;4879078;29;20219;-78
2022/09/02 01:59:19;;;;;;;9.40;8.70;;;12.80;99.90;;;;;;4894937;29;20201;-78
2022/09/02 02:01:47;;;;;;;9.73;8.83;;;12.70;99.90;;;;;;4880193;29;20284;-78
2022/09/02 02:04:15;;;;;;;9.60;8.90;;;12.70;99.90;;;;;;4880316;29;20205;-78
2022/09/02 02:06:46;;;;;;;8.93;8.23;;;12.70;99.90;;;;;;4895749;29;20212;-78
2022/09/02 02:09:15;;;;;;;9.80;9.00;;;12.70;99.90;;;;;;4896180;29;20197;-78
2022/09/02 02:11:43;;;;;;;9.63;8.93;;;12.70;99.90;;;;;;4895604;29;20230;-81
2022/09/02 02:14:15;;;;;;;9.83;9.03;;;12.70;99.90;;;;;;4891837;29;20204;-81
2022/09/02 02:16:48;;;;;;;9.90;9.17;;;12.60;99.90;;;;;;4877921;29;20266;-79
2022/09/02 02:19:15;;;;;;;9.87;9.17;;;12.60;99.90;;;;;;4895249;29;20573;-81
2022/09/02 02:21:42;;;;;;;9.30;8.60;;;12.60;99.90;;;;;;4891431;29;20607;-81
2022/09/02 02:24:09;;;;;;;10.13;9.33;;;12.60;99.90;;;;;;4901612;29;20203;-81
2022/09/02 02:26:37;;;;;;;10.43;9.63;;;12.50;99.90;;;;;;4895169;29;20203;-80
2022/09/02 02:29:05;;;;;;;10.20;9.40;;;12.50;99.90;;;;;;4895153;29;20256;-81
2022/09/02 02:31:35;;;;;;;10.27;9.43;;;12.50;99.90;;;;;;4879265;29;20225;-81
2022/09/02 02:34:02;;;;;;;10.37;9.53;;;12.40;99.90;;;;;;4893634;29;20645;-81
2022/09/02 02:36:29;;;;;;;10.27;9.37;;;12.40;99.90;;;;;;4891839;29;20235;-81
2022/09/02 02:38:55;;;;;;;10.63;9.83;;;12.30;99.90;;;;;;4893028;29;20226;-81
2022/09/02 02:41:24;;;;;;;11.33;10.47;;;12.40;99.90;;;;;;4894606;29;20232;-80
2022/09/02 02:43:51;;;;;;;10.73;9.83;;;12.30;99.90;;;;;;4895159;29;20203;-81
2022/09/02 02:46:18;;;;;;;10.50;9.57;;;12.30;99.90;;;;;;4894348;29;20204;-80
2022/09/02 02:48:47;;;;;;;11.00;10.07;;;12.20;99.90;;;;;;4880028;29;20201;-81
2022/09/02 02:51:14;;;;;;;12.03;10.93;;;12.20;99.90;;;;;;4894449;29;20694;-81
2022/09/02 02:53:41;;;;;;;10.47;9.67;;;12.20;99.90;;;;;;4894370;29;20207;-78
2022/09/02 02:56:08;;;;;;;10.73;9.93;;;12.10;99.90;;;;;;4880790;29;20224;-80
2022/09/02 02:58:35;;;;;;;11.10;10.20;;;12.10;99.90;;;;;;4896390;29;20583;-81
2022/09/02 03:01:02;;;;;;;11.50;10.50;;;12.00;99.90;;;;;;4879846;29;20270;-80
2022/09/02 03:03:31;;;;;;;10.60;9.80;;;12.00;99.90;;;;;;4894807;29;20290;-81
2022/09/02 03:05:59;;;;;;;10.67;9.80;;;12.00;99.90;;;;;;4895139;29;20199;-79
2022/09/02 03:08:28;;;;;;;10.63;9.83;;;12.00;99.90;;;;;;4896031;29;20228;-81
2022/09/02 03:10:56;;;;;;;10.77;9.97;;;11.90;99.90;;;;;;4895156;29;20215;-80
2022/09/02 03:13:27;;;;;;;10.60;9.80;;;11.80;99.90;;;;;;4890670;29;20235;-81
2022/09/02 03:15:54;;;;;;;10.57;9.77;;;11.80;99.90;;;;;;4893110;29;20599;-81
2022/09/02 03:18:22;;;;;;;11.13;10.30;;;11.80;99.90;;;;;;4880020;29;20207;-80
2022/09/02 03:20:50;;;;;;;11.10;10.20;;;11.80;99.90;;;;;;4878250;29;20236;-81
2022/09/02 03:23:19;;;;;;;11.33;10.53;;;11.70;99.90;;;;;;4893942;29;20217;-79
2022/09/02 03:25:49;;;;;;;10.60;9.80;;;11.70;99.90;;;;;;4891967;29;20484;-78
2022/09/02 03:28:36;;;;;;;11.37;10.53;;;11.70;99.90;;;;;;4880276;29;20223;-78
2022/09/02 03:31:04;;;;;;;11.63;10.63;;;11.70;99.90;;;;;;4892336;29;20278;-77
2022/09/02 03:33:32;;;;;;;10.60;9.80;;;11.70;99.90;;;;;;4876673;29;20200;-77
2022/09/02 03:35:59;;;;;;;11.10;10.30;;;11.70;99.90;;;;;;4877258;29;20210;-78
2022/09/02 03:38:28;;;;;;;11.27;10.37;;;11.70;99.90;;;;;;4878326;29;20677;-77
2022/09/02 03:40:55;;;;;;;11.50;10.53;;;11.70;99.90;;;;;;4892367;29;20203;-78
2022/09/02 03:43:22;;;;;;;11.33;10.50;;;11.70;99.90;;;;;;4889424;29;20199;-78
2022/09/02 03:45:49;;;;;;;11.53;10.73;;;11.70;99.90;;;;;;4895631;29;20473;-77
2022/09/02 03:48:16;;;;;;;11.67;10.77;;;11.70;99.90;;;;;;4891410;29;20246;-77
2022/09/02 03:50:46;;;;;;;11.40;10.60;;;11.60;99.90;;;;;;4905653;29;20207;-78
2022/09/02 03:53:17;;;;;;;12.53;11.53;;;11.50;99.90;;;;;;4886582;29;20211;-77
2022/09/02 03:55:45;;;;;;;11.57;10.77;;;11.50;99.90;;;;;;4893331;29;20217;-77
2022/09/02 03:58:14;;;;;;;11.03;10.33;;;11.50;99.90;;;;;;4891798;29;20295;-78
2022/09/02 04:00:43;;;;;;;11.97;11.00;;;11.40;99.90;;;;;;4875448;29;20297;-77
2022/09/02 04:03:11;;;;;;;12.10;11.30;;;11.40;99.90;;;;;;4900901;29;20209;-77
2022/09/02 04:05:38;;;;;;;11.60;10.80;;;11.40;99.90;;;;;;4889650;29;20211;-77
2022/09/02 04:08:05;;;;;;;12.23;11.33;;;11.40;99.90;;;;;;4893415;29;20238;-77
2022/09/02 04:10:32;;;;;;;13.33;12.30;;;11.40;99.90;;;;;;4891620;29;20229;-77
2022/09/02 04:13:00;;;;;;;12.63;11.77;;;11.40;99.90;;;;;;4881012;29;20222;-77
2022/09/02 04:15:27;;;;;;;12.80;11.80;;;11.40;99.90;;;;;;4905679;29;20314;-79
2022/09/02 04:17:55;;;;;;;12.40;11.50;;;11.40;99.90;;;;;;4878733;29;20247;-80
2022/09/02 04:20:22;;;;;;;11.80;11.00;;;11.30;99.90;;;;;;4892311;29;20651;-80
2022/09/02 04:22:49;;;;;;;11.20;10.47;;;11.30;99.90;;;;;;4894374;29;20704;-80
2022/09/02 04:25:17;;;;;;;11.73;11.00;;;11.30;99.90;;;;;;4893396;29;20297;-80
2022/09/02 04:27:46;;;;;;;11.67;10.87;;;11.20;99.90;;;;;;4892943;29;20217;-79
2022/09/02 04:30:16;;;;;;;12.23;11.23;;;11.30;99.90;;;;;;4892916;29;20294;-79
2022/09/02 04:32:44;;;;;;;11.87;11.07;;;11.20;99.90;;;;;;4893048;29;20235;-79
2022/09/02 04:35:12;;;;;;;12.03;11.23;;;11.20;99.90;;;;;;4888574;29;20203;-78
2022/09/02 04:37:40;;;;;;;11.77;10.97;;;11.20;99.90;;;;;;4880663;29;20203;-79
2022/09/02 04:40:09;;;;;;;11.33;10.57;;;11.20;99.90;;;;;;4896147;29;20213;-78
2022/09/02 04:42:37;;;;;;;11.33;10.53;;;11.20;99.90;;;;;;4896315;29;20236;-77
2022/09/02 04:45:06;;;;;;;11.97;11.10;;;11.20;99.90;;;;;;4896001;29;20302;-78
2022/09/02 04:47:35;;;;;;;12.80;11.90;;;11.20;99.90;;;;;;4901229;29;20208;-78
2022/09/02 04:50:03;;;;;;;12.23;11.43;;;11.20;99.90;;;;;;4889465;29;20221;-78
2022/09/02 04:52:32;;;;;;;12.67;11.80;;;11.20;99.90;;;;;;4897369;29;20225;-78
2022/09/02 04:55:00;;;;;;;13.53;12.33;;;11.20;99.90;;;;;;4898625;29;20209;-79
2022/09/02 04:57:31;;;;;;;12.27;11.47;;;11.20;99.90;;;;;;4898626;29;20223;-79
2022/09/02 04:59:58;;;;;;;13.17;12.10;;;11.20;99.90;;;;;;4897138;29;20293;-78
2022/09/02 05:02:25;;;;;;;13.20;12.30;;;11.20;99.90;;;;;;4881131;29;20225;-78
2022/09/02 05:04:53;;;;;;;12.83;11.93;;;11.20;99.90;;;;;;4882538;29;20211;-78
2022/09/02 05:07:28;;;;;;;13.27;12.33;;;11.20;99.90;;;;;;4881571;29;20230;-78
2022/09/02 05:09:57;;;;;;;13.37;12.47;;;11.20;99.90;;;;;;4884042;29;20264;-78
2022/09/02 05:12:26;;;;;;;13.27;12.27;;;11.30;99.90;;;;;;4894559;29;20227;-79
2022/09/02 05:14:59;;;;;;;12.97;12.07;;;11.30;99.90;;;;;;4894660;29;20405;-79
2022/09/02 05:17:30;;;;;;;12.90;12.00;;;11.40;99.90;;;;;;4895999;29;20226;-79
2022/09/02 05:19:59;;;;;;;12.93;12.03;;;11.40;99.90;;;;;;4895911;29;20759;-79
2022/09/02 05:22:28;;;;;;;12.40;11.60;;;11.40;99.90;;;;;;4881556;29;20214;-79
2022/09/02 05:24:57;;;;;;;13.30;12.30;;;11.50;99.90;;;;;;4895257;29;20261;-79
2022/09/02 05:27:25;;;;;;;12.70;11.70;;;11.60;99.90;;;;;;4895951;29;20559;-79
2022/09/02 05:29:54;;;;;;;13.07;12.03;;;11.70;99.90;;;;;;4895450;29;20677;-80
2022/09/02 05:32:21;;;;;;;11.57;10.87;;;11.70;99.90;;;;;;4894736;29;20313;-79
2022/09/02 05:34:50;;;;;;;12.40;11.50;;;11.80;99.90;;;;;;4894085;29;20210;-78
2022/09/02 05:37:18;;;;;;;12.60;11.60;;;11.90;99.90;;;;;;4877198;29;20271;-78
2022/09/02 05:39:46;;;;;;;12.50;11.60;;;12.00;99.90;;;;;;4891728;29;20310;-77
2022/09/02 05:42:15;;;;;;;12.37;11.57;;;12.20;99.90;;;;;;4892690;29;20608;-78
2022/09/02 05:44:44;;;;;;;12.53;11.73;;;12.30;99.90;;;;;;4891912;29;20208;-77
2022/09/02 05:47:12;;;;;;;12.67;11.77;;;12.40;99.90;;;;;;4891345;29;20547;-77
2022/09/02 05:49:39;;;;;;;12.53;11.73;;;12.50;99.90;;;;;;4894223;29;20215;-77
2022/09/02 05:52:13;;;;;;;12.37;11.57;;;12.60;99.90;;;;;;4887472;29;20228;-78
2022/09/02 05:54:45;;;;;;;12.60;11.70;;;12.70;99.90;;;;;;4892732;29;20212;-77
2022/09/02 05:57:17;;;;;;;11.93;11.20;;;12.80;99.90;;;;;;4888969;29;20250;-77
2022/09/02 05:59:55;;;;;;;13.37;12.20;;;12.90;99.90;;;;;;4895604;29;20212;-77
2022/09/02 06:02:25;;;;;;;12.20;11.50;;;13.00;99.90;;;;;;4895792;29;20664;-78
2022/09/02 06:04:54;;;;;;;11.27;10.57;;;13.10;99.90;;;;;;4895238;29;20598;-77
2022/09/02 06:07:22;;;;;;;11.07;10.37;;;13.30;99.90;;;;;;4889547;29;20667;-77
2022/09/02 06:09:52;;;;;;;10.97;10.30;;;13.40;99.90;;;;;;4881493;29;20213;-77
2022/09/02 06:12:23;;;;;;;12.43;11.63;;;13.50;99.90;;;;;;4895618;29;20248;-77
2022/09/02 06:14:50;;;;;;;11.00;10.30;;;13.60;99.90;;;;;;4895653;29;20206;-78
2022/09/02 06:17:20;;;;;;;11.97;11.17;;;13.70;99.90;;;;;;4892460;29;20217;-78
2022/09/02 06:19:50;;;;;;;11.10;10.40;;;13.80;99.90;;;;;;4893062;29;20236;-78
2022/09/02 06:22:17;;;;;;;10.97;10.27;;;13.90;99.90;;;;;;4895673;29;20754;-78
2022/09/02 06:24:45;;;;;;;11.73;11.03;;;14.00;99.90;;;;;;4897703;29;20276;-77
2022/09/02 06:27:19;;;;;;;11.93;11.13;;;14.20;99.90;;;;;;4895789;29;20240;-77
2022/09/02 06:29:49;;;;;;;12.07;11.37;;;14.30;99.90;;;;;;4895287;29;20272;-77
2022/09/02 06:32:20;;;;;;;10.30;9.60;;;14.50;99.90;;;;;;4898587;29;20225;-78
2022/09/02 06:34:48;;;;;;;10.40;9.70;;;14.60;99.90;;;;;;4894870;29;20213;-78
2022/09/02 06:37:15;;;;;;;10.43;9.83;;;14.70;99.90;;;;;;4895139;29;20193;-78
2022/09/02 06:39:45;;;;;;;10.87;10.07;;;14.80;99.90;;;;;;4894486;29;20233;-75
2022/09/02 06:42:18;;;;;;;9.20;8.60;;;14.90;99.90;;;;;;4885789;29;20293;-75
2022/09/02 06:45:02;;;;;;;5.10;4.70;;;14.90;99.90;;;;;;4892493;29;20669;-75
2022/09/02 06:47:30;;;;;;;3.60;3.30;;;15.00;99.90;;;;;;4890356;29;20734;-75
2022/09/02 06:49:57;;;;;;;4.40;4.00;;;15.10;99.90;;;;;;4891472;29;20278;-76
2022/09/02 06:52:25;;;;;;;3.60;3.30;;;15.20;99.90;;;;;;4892787;29;20232;-75
2022/09/02 06:54:54;;;;;;;4.50;4.10;;;15.30;99.90;;;;;;4892684;29;20231;-75
2022/09/02 06:57:22;;;;;;;3.83;3.53;;;15.40;99.90;;;;;;4889602;29;20198;-81
2022/09/02 06:59:49;;;;;;;3.80;3.40;;;15.50;99.90;;;;;;4896959;29;20211;-77
2022/09/02 07:02:19;;;;;;;5.07;4.47;;;15.60;99.90;;;;;;4912248;29;20223;-79
2022/09/02 07:07:31;;;;;;;4.77;4.37;;;15.70;99.90;;;;;;4880000;29;20641;-77
2022/09/02 07:10:05;;;;;;;10.70;10.10;;;15.80;99.90;;;;;;4892445;29;20231;-77
2022/09/02 07:12:36;;;;;;;5.00;4.30;;;15.90;99.90;;;;;;4893710;29;20781;-77
2022/09/02 07:15:09;;;;;;;6.73;6.07;;;16.10;99.90;;;;;;4892557;29;20194;-77
2022/09/02 07:17:39;;;;;;;10.77;10.07;;;16.40;99.90;;;;;;4878377;29;20221;-78
2022/09/02 07:20:11;;;;;;;7.70;7.20;;;16.80;99.90;;;;;;4889780;29;20205;-77
2022/09/02 07:22:49;;;;;;;6.37;5.87;;;17.20;99.90;;;;;;4889791;29;20228;-78
2022/09/02 07:25:19;;;;;;;8.40;7.60;;;17.70;99.90;;;;;;4892542;29;20292;-78
2022/09/02 07:27:51;;;;;;;5.03;3.83;;;18.20;99.90;;;;;;4892223;29;20307;-78
2022/09/02 07:30:18;;;;;;;4.87;4.47;;;18.80;99.90;;;;;;4892626;29;20202;-78
2022/09/02 07:32:48;;;;;;;7.60;7.00;;;19.40;99.90;;;;;;4892455;29;21072;-78
2022/09/02 07:35:15;;;;;;;7.80;7.20;;;19.80;99.90;;;;;;4885604;29;20673;-78
2022/09/02 07:37:43;;;;;;;4.43;3.50;;;20.20;99.90;;;;;;4892368;29;20208;-79
2022/09/02 07:40:12;;;;;;;4.07;3.70;;;20.60;99.90;;;;;;4884604;29;20247;-78
2022/09/02 07:42:39;;;;;;;7.33;6.77;;;20.60;99.90;;;;;;4892461;29;20232;-79
2022/09/02 07:45:08;;;;;;;10.30;9.60;;;21.10;99.90;;;;;;4891927;29;20213;-79
2022/09/02 07:47:37;;;;;;;7.50;6.80;;;21.10;99.90;;;;;;4886714;29;20682;-78
2022/09/02 07:50:06;;;;;;;11.53;10.73;;;21.40;99.90;;;;;;4893600;29;20684;-79
2022/09/02 07:52:33;;;;;;;10.33;9.50;;;21.70;99.90;;;;;;4892345;29;20225;-79
2022/09/02 07:55:01;;;;;;;4.90;4.50;;;21.70;99.90;;;;;;4892197;29;20216;-78
2022/09/02 07:57:29;;;;;;;5.17;4.40;;;21.90;99.90;;;;;;4894577;29;20204;-77
2022/09/02 07:59:55;;;;;;;6.53;5.97;;;21.90;99.90;;;;;;4893769;29;20202;-80
2022/09/02 08:02:24;;;;;;;5.73;4.77;;;22.30;99.90;;;;;;4894872;29;20224;-79
2022/09/02 08:04:53;;;;;;;9.43;8.80;;;22.30;99.90;;;;;;4895450;29;20813;-79
2022/09/02 08:07:23;;;;;;;5.70;5.20;;;22.40;99.90;;;;;;4897308;29;20236;-78
2022/09/02 08:09:50;;;;;;;4.70;3.30;;;22.50;99.90;;;;;;4902273;29;20213;-79
2022/09/02 08:12:17;;;;;;;10.30;9.40;;;22.80;99.90;;;;;;4888751;29;20213;-81
2022/09/02 08:14:43;;;;;;;7.43;6.83;;;22.80;99.90;;;;;;4900543;29;20244;-81
2022/09/02 08:17:10;;;;;;;5.30;4.90;;;23.00;99.90;;;;;;4890431;29;20651;-79
2022/09/02 08:19:38;;;;;;;9.77;8.93;;;23.00;99.90;;;;;;4898580;29;20198;-80
2022/09/02 08:22:06;;;;;;;9.30;8.60;;;23.20;99.90;;;;;;4884107;29;20252;-81
2022/09/02 08:24:32;;;;;;;4.63;4.23;;;23.20;99.90;;;;;;4884612;29;20204;-80
2022/09/02 08:27:00;;;;;;;4.77;3.43;;;23.40;99.90;;;;;;4897245;29;20222;-80
2022/09/02 08:29:26;;;;;;;6.30;5.77;;;23.60;99.90;;;;;;4888764;29;20279;-80
2022/09/02 08:31:53;;;;;;;8.70;8.00;;;23.70;99.90;;;;;;4893000;29;20220;-80
2022/09/02 08:34:20;;;;;;;11.50;8.23;;;23.50;99.90;;;;;;4883343;29;20249;-80
2022/09/02 08:36:48;;;;;;;7.83;7.23;;;23.60;99.90;;;;;;4898106;29;20261;-80
2022/09/02 08:39:15;;;;;;;4.97;4.50;;;23.90;99.90;;;;;;4897908;29;20197;-80
2022/09/02 08:41:49;;;;;;;6.10;5.70;;;24.00;99.90;;;;;;4897201;29;20237;-80
2022/09/02 08:44:21;;;;;;;7.70;7.20;;;24.30;99.90;;;;;;4882241;29;20244;-80
2022/09/02 08:46:50;;;;;;;8.07;7.50;;;24.50;99.90;;;;;;4881725;29;20670;-80
2022/09/02 08:49:24;;;;;;;4.03;3.70;;;24.60;99.90;;;;;;4881106;29;20553;-80
2022/09/02 08:51:56;;;;;;;3.17;2.87;;;24.80;99.90;;;;;;4880643;29;20245;-81
2022/09/02 08:54:30;;;;;;;4.97;4.60;;;24.90;99.90;;;;;;4882232;29;20553;-80
2022/09/02 08:56:57;;;;;;;7.27;6.77;;;24.70;99.90;;;;;;4881544;29;20197;-80
2022/09/02 08:59:27;;;;;;;8.00;6.90;;;24.60;99.90;;;;;;4896144;29;20211;-80
2022/09/02 09:02:04;;;;;;;7.53;6.80;;;24.70;99.90;;;;;;4881536;29;20232;-80
2022/09/02 09:04:47;;;;;;;8.13;7.53;;;24.50;99.90;;;;;;4880810;29;20287;-80
2022/09/02 09:07:23;;;;;;;8.20;7.57;;;24.70;99.90;;;;;;4880424;29;20278;-80
2022/09/02 09:10:02;;;;;;;8.03;7.37;;;24.40;99.90;;;;;;4895123;29;20220;-80
2022/09/02 09:12:42;;;;;;;7.10;6.60;;;24.10;99.90;;;;;;4892371;29;20229;-80
2022/09/02 09:15:19;;;;;;;6.60;6.20;;;24.20;99.90;;;;;;4894816;29;20209;-80
2022/09/02 09:17:50;;;;;;;6.87;6.47;;;23.90;99.90;;;;;;4895628;29;20629;-80
2022/09/02 09:20:20;;;;;;;6.13;5.73;;;24.10;99.90;;;;;;4892518;29;20209;-81
2022/09/02 09:22:51;;;;;;;6.83;6.23;;;23.80;99.90;;;;;;4877404;29;20225;-78
2022/09/02 09:25:18;;;;;;;7.00;6.40;;;24.00;99.90;;;;;;4886806;29;20260;-80
2022/09/02 09:27:45;;;;;;;5.70;5.30;;;24.50;99.90;;;;;;4877003;29;20221;-80
2022/09/02 09:30:13;;;;;;;6.70;6.30;;;24.40;99.90;;;;;;4877516;29;20293;-80
2022/09/02 09:32:43;;;;;;;6.20;5.80;;;24.60;99.90;;;;;;4902564;29;20294;-80
2022/09/02 09:35:11;;;;;;;6.00;5.60;;;24.80;99.90;;;;;;4884593;29;20306;-77
2022/09/02 09:37:40;;;;;;;4.23;3.93;;;24.90;99.90;;;;;;4888912;29;20213;-78
2022/09/02 09:40:27;;;;;;;3.80;2.70;;;24.90;99.90;;;;;;4900382;29;20205;-78
2022/09/02 09:42:56;;;;;;;3.47;3.20;;;25.30;99.90;;;;;;4876310;29;20229;-77
2022/09/02 09:45:31;;;;;;;6.77;6.27;;;25.40;99.90;;;;;;4877040;29;20205;-77
2022/09/02 09:48:18;;;;;;;8.80;8.20;;;25.40;99.60;;;;;;4892414;29;20231;-77
2022/09/02 09:50:46;;;;;;;8.10;7.60;;;25.10;99.90;;;;;;4877728;29;20663;-77
2022/09/02 09:53:19;;;;;;;7.03;6.63;;;25.00;99.90;;;;;;4893254;29;20262;-77
2022/09/02 09:55:56;;;;;;;8.17;7.67;;;24.80;99.90;;;;;;4894539;29;20668;-77
2022/09/02 09:58:29;;;;;;;7.87;7.27;;;24.80;99.90;;;;;;4874239;29;20201;-78
2022/09/02 10:00:59;;;;;;;7.80;7.10;;;24.80;99.90;;;;;;4879939;29;20208;-77
2022/09/02 10:03:28;;;;;;;7.50;7.00;;;24.30;99.90;;;;;;4893761;29;20205;-77
2022/09/02 10:05:56;;;;;;;7.50;7.00;;;24.30;99.90;;;;;;4879610;29;20201;-77
2022/09/02 10:08:25;;;;;;;7.40;6.90;;;23.70;99.90;;;;;;4890690;29;20708;-77
2022/09/02 10:10:59;;;;;;;7.53;7.03;;;23.30;99.90;;;;;;4877506;29;20264;-77
2022/09/02 10:13:29;;;;;;;6.77;6.37;;;23.50;99.90;;;;;;4879414;29;20201;-76
2022/09/02 10:16:15;;;;;;;6.60;6.20;;;23.40;99.90;;;;;;4879574;29;20205;-77
2022/09/02 10:18:48;;;;;;;7.20;6.50;;;23.60;99.90;;;;;;4894091;29;20237;-77
2022/09/02 10:21:32;;;;;;;6.93;6.53;;;23.70;99.90;;;;;;4879130;29;20225;-77
2022/09/02 10:24:08;;;;;;;7.43;6.93;;;23.70;99.90;;;;;;4893600;29;20216;-77
2022/09/02 10:26:40;;;;;;;7.00;6.50;;;23.50;99.90;;;;;;4879520;29;20214;-77
2022/09/02 10:29:28;;;;;;;7.00;6.50;;;23.60;99.90;;;;;;4879159;29;20221;-77
2022/09/02 10:32:16;;;;;;;7.03;6.57;;;23.60;99.90;;;;;;4877257;29;20296;-76
2022/09/02 10:34:53;;;;;;;7.03;6.63;;;23.80;99.90;;;;;;4878708;29;20304;-76
2022/09/02 10:37:23;;;;;;;6.80;6.30;;;23.70;99.90;;;;;;4879023;29;20742;-77
2022/09/02 10:40:07;;;;;;;6.83;6.43;;;23.70;99.90;;;;;;4878973;29;20216;-77
2022/09/02 10:42:43;;;;;;;7.00;6.60;;;23.70;99.90;;;;;;4878726;29;20231;-77
2022/09/02 10:45:16;;;;;;;7.33;6.83;;;23.60;99.90;;;;;;4892853;29;20208;-77
2022/09/02 10:47:50;;;;;;;7.13;6.60;;;23.70;99.90;;;;;;4878376;29;20310;-76
2022/09/02 10:50:22;;;;;;;6.60;6.20;;;23.60;99.90;;;;;;4878805;29;20209;-76
2022/09/02 10:53:08;;;;;;;7.20;6.70;;;23.60;99.90;;;;;;4878723;29;20285;-77
2022/09/02 10:55:44;;;;;;;7.40;6.93;;;23.50;99.90;;;;;;4893041;29;20208;-77
2022/09/02 10:58:20;;;;;;;7.37;6.87;;;23.20;99.90;;;;;;4878665;29;20261;-77
2022/09/02 11:00:50;;;;;;;7.33;6.83;;;23.20;99.90;;;;;;4892905;29;20316;-77
2022/09/02 11:03:21;;;;;;;7.40;6.90;;;23.40;99.90;;;;;;4878361;29;20202;-77
2022/09/02 11:05:51;;;;;;;6.80;6.30;;;23.20;99.90;;;;;;4878433;29;20213;-76
2022/09/02 11:08:24;;;;;;;6.93;6.43;;;23.30;99.90;;;;;;4878211;29;20219;-77
2022/09/02 11:11:00;;;;;;;7.17;6.67;;;23.10;99.90;;;;;;4892744;29;20261;-77
2022/09/02 11:13:37;;;;;;;7.20;6.70;;;23.20;99.90;;;;;;4892726;29;20216;-76
2022/09/02 11:16:14;;;;;;;7.10;6.57;;;23.20;99.90;;;;;;4878319;29;20253;-77
2022/09/02 11:18:47;;;;;;;7.60;6.90;;;23.20;99.90;;;;;;4878285;29;20205;-77
2022/09/02 11:21:27;;;;;;;6.80;6.40;;;22.80;99.90;;;;;;4879218;29;20273;-77
2022/09/02 11:23:59;;;;;;;7.10;6.60;;;22.90;99.90;;;;;;4879492;29;20204;-76
2022/09/02 11:26:29;;;;;;;7.10;6.50;;;23.00;99.90;;;;;;4878947;29;20224;-76
2022/09/02 11:29:02;;;;;;;7.00;6.50;;;23.00;99.90;;;;;;4890763;29;20226;-77
2022/09/02 11:31:34;;;;;;;7.17;6.67;;;23.10;99.90;;;;;;4892210;29;20225;-77
2022/09/02 11:34:11;;;;;;;7.00;6.40;;;22.80;99.90;;;;;;4877815;29;20268;-76
2022/09/02 11:36:39;;;;;;;7.27;6.77;;;22.80;99.90;;;;;;4892464;29;20212;-76
2022/09/02 11:39:10;;;;;;;7.60;7.00;;;22.60;99.90;;;;;;4879634;29;20262;-78
2022/09/02 11:42:03;;;;;;;7.30;6.80;;;22.70;99.90;;;;;;4920523;23;20728;-77
2022/09/02 11:45:12;;;;;;;7.57;7.07;;;22.70;99.90;;;;;;4938892;29;20462;-77
2022/09/02 11:48:09;;;;;;;7.43;6.93;;;22.80;99.90;;;;;;4934261;29;20732;-76
2022/09/02 11:50:57;;;;;;;5.60;5.30;;;22.80;99.90;;;;;;4910727;29;20254;-77
2022/09/02 11:53:27;;;;;;;6.70;6.20;;;22.90;99.90;;;;;;4934370;29;20226;-77
2022/09/02 11:55:58;;;;;;;6.03;5.63;;;23.10;99.90;;;;;;4932541;29;20263;-77
2022/09/02 11:58:37;;;;;;;6.70;6.30;;;23.10;99.90;;;;;;4936163;29;20255;-77
2022/09/02 12:01:26;;;;;;;4.20;3.90;;;23.20;99.90;;;;;;4935661;29;20242;-78
2022/09/02 12:03:59;;;;;;;5.10;4.80;;;23.20;99.90;;;;;;4935038;29;20207;-77
2022/09/02 12:06:26;;;;;;;5.30;5.00;;;23.20;99.90;;;;;;4919960;29;20271;-77
2022/09/02 12:09:06;;;;;;;6.70;6.30;;;23.20;99.90;;;;;;4934300;29;20696;-77
2022/09/02 12:11:53;;;;;;;6.70;6.20;;;23.20;99.90;;;;;;4934314;29;20230;-78
2022/09/02 12:15:06;;;;;;;7.00;6.60;;;23.30;99.90;;;;;;4935470;29;20199;-77
2022/09/02 12:18:06;;;;;;;6.93;6.40;;;23.20;99.90;;;;;;4934127;29;20250;-78
2022/09/02 12:21:09;;;;;;;7.90;7.30;;;23.30;99.90;;;;;;4930792;29;20259;-78
2022/09/02 12:24:11;;;;;;;7.20;6.70;;;23.30;99.90;;;;;;4931876;29;20191;-78
2022/09/02 12:27:09;;;;;;;4.13;3.83;;;23.10;99.90;;;;;;4891234;29;20817;-77
2022/09/02 12:29:36;;;;;;;3.10;2.70;;;23.00;99.90;;;;;;4837115;29;20228;-77
2022/09/02 12:32:05;;;;;;;7.40;6.90;;;22.80;99.90;;;;;;4916602;29;20262;-77
2022/09/02 12:34:56;;;;;;;6.63;6.23;;;22.90;99.90;;;;;;4932336;29;20203;-76
2022/09/02 12:38:05;;;;;;;7.80;7.30;;;22.90;99.90;;;;;;4930694;29;20203;-76
2022/09/02 12:40:38;;;;;;;8.37;7.83;;;22.90;99.90;;;;;;4929022;29;20196;-77
2022/09/02 12:43:18;;;;;;;8.60;8.00;;;22.90;99.90;;;;;;4933487;29;20670;-77
2022/09/02 12:45:46;;;;;;;7.00;6.60;;;22.90;99.90;;;;;;4937362;29;20206;-76
2022/09/02 12:48:17;;;;;;;2.70;2.47;;;22.80;99.90;;;;;;4937363;29;20267;-77
2022/09/02 12:50:54;;;;;;;2.27;2.13;;;22.80;99.90;;;;;;4936108;29;20211;-77
2022/09/02 12:53:35;;;;;;;2.33;2.20;;;22.80;99.90;;;;;;4935929;29;20302;-77
2022/09/02 12:56:05;;;;;;;2.40;2.20;;;22.80;99.90;;;;;;4935705;29;20210;-76
2022/09/02 12:58:35;;;;;;;2.30;2.10;;;22.90;99.90;;;;;;4936653;29;20191;-77
2022/09/02 13:01:14;;;;;;;2.43;2.30;;;22.90;99.90;;;;;;4935867;29;20277;-77
2022/09/02 13:04:15;;;;;;;4.60;2.30;;;23.00;99.90;;;;;;4933939;29;20203;-77